sensor_id;sensor_type;location;lat;lon;timestamp;P1;durP1;ratioP1;P2;durP2;ratioP2
38901;SDS011;24661;53.566;9.910;2023-06-22T00:02:24;5.90;;;3.97;;
38901;SDS011;24661;53.566;9.910;2023-06-22T00:04:50;4.97;;;3.77;;
38901;SDS011;24661;53.566;9.910;2023-06-22T00:07:15;8.27;;;4.30;;
38901;SDS011;24661;53.566;9.910;2023-06-22T00:09:41;5.00;;;3.73;;
38901;SDS011;24661;53.566;9.910;2023-06-22T00:12:06;4.57;;;3.87;;
38901;SDS011;24661;53.566;9.910;2023-06-22T00:14:32;7.77;;;4.17;;
38901;SDS011;24661;53.566;9.910;2023-06-22T00:16:58;6.53;;;3.90;;
38901;SDS011;24661;53.566;9.910;2023-06-22T00:19:24;4.50;;;3.73;;
38901;SDS011;24661;53.566;9.910;2023-06-22T00:21:50;6.03;;;4.47;;
38901;SDS011;24661;53.566;9.910;2023-06-22T00:24:18;6.60;;;4.07;;
38901;SDS011;24661;53.566;9.910;2023-06-22T00:26:50;5.20;;;4.33;;
38901;SDS011;24661;53.566;9.910;2023-06-22T00:29:15;5.80;;;4.63;;
38901;SDS011;24661;53.566;9.910;2023-06-22T00:31:41;5.77;;;4.17;;
38901;SDS011;24661;53.566;9.910;2023-06-22T00:34:07;7.10;;;4.30;;
38901;SDS011;24661;53.566;9.910;2023-06-22T00:36:34;6.43;;;3.80;;
38901;SDS011;24661;53.566;9.910;2023-06-22T00:38:59;4.80;;;3.80;;
38901;SDS011;24661;53.566;9.910;2023-06-22T00:41:25;8.40;;;4.73;;
38901;SDS011;24661;53.566;9.910;2023-06-22T00:43:53;4.40;;;3.87;;
38901;SDS011;24661;53.566;9.910;2023-06-22T00:46:20;7.13;;;3.80;;
38901;SDS011;24661;53.566;9.910;2023-06-22T00:48:47;7.50;;;4.50;;
38901;SDS011;24661;53.566;9.910;2023-06-22T00:51:13;8.13;;;5.83;;
38901;SDS011;24661;53.566;9.910;2023-06-22T00:53:39;10.70;;;8.23;;
38901;SDS011;24661;53.566;9.910;2023-06-22T00:56:06;9.60;;;7.40;;
38901;SDS011;24661;53.566;9.910;2023-06-22T00:58:33;5.70;;;5.10;;
38901;SDS011;24661;53.566;9.910;2023-06-22T01:01:00;7.17;;;5.17;;
38901;SDS011;24661;53.566;9.910;2023-06-22T01:03:27;9.37;;;6.07;;
38901;SDS011;24661;53.566;9.910;2023-06-22T01:05:52;5.97;;;4.63;;
38901;SDS011;24661;53.566;9.910;2023-06-22T01:08:30;8.13;;;5.80;;
38901;SDS011;24661;53.566;9.910;2023-06-22T01:16:29;6.90;;;4.83;;
38901;SDS011;24661;53.566;9.910;2023-06-22T01:18:57;11.90;;;6.57;;
38901;SDS011;24661;53.566;9.910;2023-06-22T01:21:42;7.77;;;5.40;;
38901;SDS011;24661;53.566;9.910;2023-06-22T01:24:23;8.70;;;4.90;;
38901;SDS011;24661;53.566;9.910;2023-06-22T01:27:05;7.80;;;5.37;;
38901;SDS011;24661;53.566;9.910;2023-06-22T01:29:55;6.23;;;4.80;;
38901;SDS011;24661;53.566;9.910;2023-06-22T01:32:25;7.57;;;5.70;;
38901;SDS011;24661;53.566;9.910;2023-06-22T01:34:53;7.53;;;5.50;;
38901;SDS011;24661;53.566;9.910;2023-06-22T01:37:19;7.63;;;5.87;;
38901;SDS011;24661;53.566;9.910;2023-06-22T01:39:45;10.97;;;6.20;;
38901;SDS011;24661;53.566;9.910;2023-06-22T01:42:11;7.23;;;5.40;;
38901;SDS011;24661;53.566;9.910;2023-06-22T01:44:37;11.53;;;6.23;;
38901;SDS011;24661;53.566;9.910;2023-06-22T01:47:03;13.63;;;6.63;;
38901;SDS011;24661;53.566;9.910;2023-06-22T01:49:29;7.67;;;5.73;;
38901;SDS011;24661;53.566;9.910;2023-06-22T01:51:55;10.93;;;6.13;;
38901;SDS011;24661;53.566;9.910;2023-06-22T01:54:21;9.83;;;5.70;;
38901;SDS011;24661;53.566;9.910;2023-06-22T01:56:46;9.43;;;6.10;;
38901;SDS011;24661;53.566;9.910;2023-06-22T01:59:17;8.60;;;6.20;;
38901;SDS011;24661;53.566;9.910;2023-06-22T02:01:53;9.23;;;6.87;;
38901;SDS011;24661;53.566;9.910;2023-06-22T02:04:27;11.13;;;5.93;;
38901;SDS011;24661;53.566;9.910;2023-06-22T02:07:23;9.87;;;6.40;;
38901;SDS011;24661;53.566;9.910;2023-06-22T02:09:53;6.57;;;5.53;;
38901;SDS011;24661;53.566;9.910;2023-06-22T02:12:22;8.27;;;6.20;;
38901;SDS011;24661;53.566;9.910;2023-06-22T02:14:50;7.03;;;5.43;;
38901;SDS011;24661;53.566;9.910;2023-06-22T02:17:17;7.37;;;5.73;;
38901;SDS011;24661;53.566;9.910;2023-06-22T02:19:43;8.33;;;6.37;;
38901;SDS011;24661;53.566;9.910;2023-06-22T02:22:09;9.27;;;6.50;;
38901;SDS011;24661;53.566;9.910;2023-06-22T02:24:34;9.70;;;6.17;;
38901;SDS011;24661;53.566;9.910;2023-06-22T02:27:00;8.87;;;5.87;;
38901;SDS011;24661;53.566;9.910;2023-06-22T02:29:27;10.23;;;7.10;;
38901;SDS011;24661;53.566;9.910;2023-06-22T02:31:53;10.67;;;6.53;;
38901;SDS011;24661;53.566;9.910;2023-06-22T02:34:20;10.43;;;6.53;;
38901;SDS011;24661;53.566;9.910;2023-06-22T02:36:47;10.80;;;7.03;;
38901;SDS011;24661;53.566;9.910;2023-06-22T02:39:20;13.43;;;6.77;;
38901;SDS011;24661;53.566;9.910;2023-06-22T02:41:51;10.53;;;6.87;;
38901;SDS011;24661;53.566;9.910;2023-06-22T02:44:17;11.23;;;6.93;;
38901;SDS011;24661;53.566;9.910;2023-06-22T02:46:43;8.27;;;6.30;;
38901;SDS011;24661;53.566;9.910;2023-06-22T02:49:09;7.60;;;6.63;;
38901;SDS011;24661;53.566;9.910;2023-06-22T02:51:35;8.83;;;6.90;;
38901;SDS011;24661;53.566;9.910;2023-06-22T02:54:04;11.07;;;6.90;;
38901;SDS011;24661;53.566;9.910;2023-06-22T02:56:30;10.33;;;6.40;;
38901;SDS011;24661;53.566;9.910;2023-06-22T02:58:56;9.80;;;7.60;;
38901;SDS011;24661;53.566;9.910;2023-06-22T03:01:29;12.43;;;7.37;;
38901;SDS011;24661;53.566;9.910;2023-06-22T03:03:58;10.57;;;6.60;;
38901;SDS011;24661;53.566;9.910;2023-06-22T03:06:24;8.63;;;7.00;;
38901;SDS011;24661;53.566;9.910;2023-06-22T03:08:54;9.30;;;7.20;;
38901;SDS011;24661;53.566;9.910;2023-06-22T03:11:30;9.67;;;7.63;;
38901;SDS011;24661;53.566;9.910;2023-06-22T03:13:56;9.47;;;7.07;;
38901;SDS011;24661;53.566;9.910;2023-06-22T03:16:22;13.07;;;7.63;;
38901;SDS011;24661;53.566;9.910;2023-06-22T03:18:48;11.87;;;7.60;;
38901;SDS011;24661;53.566;9.910;2023-06-22T03:21:13;11.27;;;7.97;;
38901;SDS011;24661;53.566;9.910;2023-06-22T03:23:40;11.97;;;8.60;;
38901;SDS011;24661;53.566;9.910;2023-06-22T03:26:06;10.80;;;8.63;;
38901;SDS011;24661;53.566;9.910;2023-06-22T03:28:33;10.67;;;7.27;;
38901;SDS011;24661;53.566;9.910;2023-06-22T03:30:58;11.10;;;8.10;;
38901;SDS011;24661;53.566;9.910;2023-06-22T03:33:24;10.40;;;8.17;;
38901;SDS011;24661;53.566;9.910;2023-06-22T03:35:50;14.60;;;8.37;;
38901;SDS011;24661;53.566;9.910;2023-06-22T03:38:16;12.00;;;8.30;;
38901;SDS011;24661;53.566;9.910;2023-06-22T03:40:41;10.03;;;7.57;;
38901;SDS011;24661;53.566;9.910;2023-06-22T03:43:07;9.97;;;7.27;;
38901;SDS011;24661;53.566;9.910;2023-06-22T03:45:33;12.83;;;8.67;;
38901;SDS011;24661;53.566;9.910;2023-06-22T03:47:58;12.70;;;8.50;;
38901;SDS011;24661;53.566;9.910;2023-06-22T03:50:25;13.03;;;8.30;;
38901;SDS011;24661;53.566;9.910;2023-06-22T03:52:50;10.50;;;7.87;;
38901;SDS011;24661;53.566;9.910;2023-06-22T03:55:17;8.70;;;7.07;;
38901;SDS011;24661;53.566;9.910;2023-06-22T03:57:44;11.17;;;7.87;;
38901;SDS011;24661;53.566;9.910;2023-06-22T04:00:10;13.40;;;8.13;;
38901;SDS011;24661;53.566;9.910;2023-06-22T04:02:36;13.90;;;8.63;;
38901;SDS011;24661;53.566;9.910;2023-06-22T04:05:02;13.07;;;8.40;;
38901;SDS011;24661;53.566;9.910;2023-06-22T04:07:27;14.83;;;9.47;;
38901;SDS011;24661;53.566;9.910;2023-06-22T04:09:54;18.17;;;8.53;;
38901;SDS011;24661;53.566;9.910;2023-06-22T04:12:20;12.77;;;8.10;;
38901;SDS011;24661;53.566;9.910;2023-06-22T04:14:45;11.50;;;7.60;;
38901;SDS011;24661;53.566;9.910;2023-06-22T04:17:11;10.40;;;8.30;;
38901;SDS011;24661;53.566;9.910;2023-06-22T04:19:39;11.57;;;7.73;;
38901;SDS011;24661;53.566;9.910;2023-06-22T04:22:04;10.10;;;7.93;;
38901;SDS011;24661;53.566;9.910;2023-06-22T04:24:32;13.40;;;8.13;;
38901;SDS011;24661;53.566;9.910;2023-06-22T04:26:58;12.43;;;8.17;;
38901;SDS011;24661;53.566;9.910;2023-06-22T04:29:27;11.43;;;7.93;;
38901;SDS011;24661;53.566;9.910;2023-06-22T04:31:55;9.50;;;7.87;;
38901;SDS011;24661;53.566;9.910;2023-06-22T04:34:24;10.40;;;7.63;;
38901;SDS011;24661;53.566;9.910;2023-06-22T04:36:52;11.20;;;8.03;;
38901;SDS011;24661;53.566;9.910;2023-06-22T04:39:18;8.53;;;7.30;;
38901;SDS011;24661;53.566;9.910;2023-06-22T04:41:44;11.40;;;6.73;;
38901;SDS011;24661;53.566;9.910;2023-06-22T04:46:36;18.47;;;8.47;;
38901;SDS011;24661;53.566;9.910;2023-06-22T04:49:09;9.33;;;7.10;;
38901;SDS011;24661;53.566;9.910;2023-06-22T04:51:41;8.33;;;6.90;;
38901;SDS011;24661;53.566;9.910;2023-06-22T04:54:07;8.80;;;6.40;;
38901;SDS011;24661;53.566;9.910;2023-06-22T04:56:36;10.70;;;6.40;;
38901;SDS011;24661;53.566;9.910;2023-06-22T04:59:02;11.13;;;8.27;;
38901;SDS011;24661;53.566;9.910;2023-06-22T05:01:28;12.23;;;7.23;;
38901;SDS011;24661;53.566;9.910;2023-06-22T05:03:55;10.13;;;6.93;;
38901;SDS011;24661;53.566;9.910;2023-06-22T05:06:22;15.93;;;7.43;;
38901;SDS011;24661;53.566;9.910;2023-06-22T05:08:51;11.00;;;7.77;;
38901;SDS011;24661;53.566;9.910;2023-06-22T05:11:18;15.93;;;7.43;;
38901;SDS011;24661;53.566;9.910;2023-06-22T05:13:44;10.17;;;6.70;;
38901;SDS011;24661;53.566;9.910;2023-06-22T05:16:09;10.33;;;6.57;;
38901;SDS011;24661;53.566;9.910;2023-06-22T05:18:35;10.57;;;6.97;;
38901;SDS011;24661;53.566;9.910;2023-06-22T05:21:01;8.87;;;7.00;;
38901;SDS011;24661;53.566;9.910;2023-06-22T05:23:28;9.30;;;6.57;;
38901;SDS011;24661;53.566;9.910;2023-06-22T05:25:54;8.90;;;7.03;;
38901;SDS011;24661;53.566;9.910;2023-06-22T05:28:22;8.50;;;6.90;;
38901;SDS011;24661;53.566;9.910;2023-06-22T05:30:49;8.33;;;5.60;;
38901;SDS011;24661;53.566;9.910;2023-06-22T05:33:14;10.07;;;6.10;;
38901;SDS011;24661;53.566;9.910;2023-06-22T05:35:40;7.00;;;5.60;;
38901;SDS011;24661;53.566;9.910;2023-06-22T05:38:06;5.70;;;5.10;;
38901;SDS011;24661;53.566;9.910;2023-06-22T05:40:32;12.33;;;5.27;;
38901;SDS011;24661;53.566;9.910;2023-06-22T05:42:58;6.13;;;4.47;;
38901;SDS011;24661;53.566;9.910;2023-06-22T05:45:25;8.07;;;4.90;;
38901;SDS011;24661;53.566;9.910;2023-06-22T05:47:51;6.47;;;4.07;;
38901;SDS011;24661;53.566;9.910;2023-06-22T05:50:16;6.73;;;3.90;;
38901;SDS011;24661;53.566;9.910;2023-06-22T05:52:42;5.17;;;3.53;;
38901;SDS011;24661;53.566;9.910;2023-06-22T05:55:08;6.63;;;3.87;;
38901;SDS011;24661;53.566;9.910;2023-06-22T05:57:33;3.47;;;3.17;;
38901;SDS011;24661;53.566;9.910;2023-06-22T05:59:59;5.50;;;3.90;;
38901;SDS011;24661;53.566;9.910;2023-06-22T06:02:25;4.70;;;3.63;;
38901;SDS011;24661;53.566;9.910;2023-06-22T06:04:50;5.00;;;3.40;;
38901;SDS011;24661;53.566;9.910;2023-06-22T06:07:17;4.27;;;3.77;;
38901;SDS011;24661;53.566;9.910;2023-06-22T06:09:43;5.80;;;3.83;;
38901;SDS011;24661;53.566;9.910;2023-06-22T06:12:08;6.17;;;3.43;;
38901;SDS011;24661;53.566;9.910;2023-06-22T06:14:34;7.53;;;3.53;;
38901;SDS011;24661;53.566;9.910;2023-06-22T06:17:00;7.13;;;4.50;;
38901;SDS011;24661;53.566;9.910;2023-06-22T06:19:25;7.10;;;3.93;;
38901;SDS011;24661;53.566;9.910;2023-06-22T06:21:51;5.70;;;4.70;;
38901;SDS011;24661;53.566;9.910;2023-06-22T06:24:16;7.63;;;5.10;;
38901;SDS011;24661;53.566;9.910;2023-06-22T06:26:42;7.23;;;5.27;;
38901;SDS011;24661;53.566;9.910;2023-06-22T06:29:07;5.63;;;4.00;;
38901;SDS011;24661;53.566;9.910;2023-06-22T06:31:33;5.43;;;4.30;;
38901;SDS011;24661;53.566;9.910;2023-06-22T06:33:59;6.53;;;4.03;;
38901;SDS011;24661;53.566;9.910;2023-06-22T06:36:24;7.30;;;3.87;;
38901;SDS011;24661;53.566;9.910;2023-06-22T06:38:50;8.50;;;4.77;;
38901;SDS011;24661;53.566;9.910;2023-06-22T06:41:16;10.77;;;5.17;;
38901;SDS011;24661;53.566;9.910;2023-06-22T06:43:41;6.33;;;4.07;;
38901;SDS011;24661;53.566;9.910;2023-06-22T06:46:08;8.20;;;4.07;;
38901;SDS011;24661;53.566;9.910;2023-06-22T06:48:34;5.17;;;3.70;;
38901;SDS011;24661;53.566;9.910;2023-06-22T06:50:59;5.83;;;3.50;;
38901;SDS011;24661;53.566;9.910;2023-06-22T06:53:25;7.27;;;5.43;;
38901;SDS011;24661;53.566;9.910;2023-06-22T06:55:50;6.63;;;4.70;;
38901;SDS011;24661;53.566;9.910;2023-06-22T06:58:16;7.27;;;3.70;;
38901;SDS011;24661;53.566;9.910;2023-06-22T07:00:42;7.97;;;4.20;;
38901;SDS011;24661;53.566;9.910;2023-06-22T07:03:08;3.77;;;2.93;;
38901;SDS011;24661;53.566;9.910;2023-06-22T07:05:34;6.97;;;4.17;;
38901;SDS011;24661;53.566;9.910;2023-06-22T07:08:00;5.17;;;3.33;;
38901;SDS011;24661;53.566;9.910;2023-06-22T07:10:26;4.37;;;3.70;;
38901;SDS011;24661;53.566;9.910;2023-06-22T07:12:52;4.67;;;2.90;;
38901;SDS011;24661;53.566;9.910;2023-06-22T07:15:18;6.53;;;3.33;;
38901;SDS011;24661;53.566;9.910;2023-06-22T07:17:43;8.43;;;6.93;;
38901;SDS011;24661;53.566;9.910;2023-06-22T07:20:09;6.37;;;5.27;;
38901;SDS011;24661;53.566;9.910;2023-06-22T07:22:39;6.77;;;3.93;;
38901;SDS011;24661;53.566;9.910;2023-06-22T07:25:07;4.20;;;3.40;;
38901;SDS011;24661;53.566;9.910;2023-06-22T07:27:42;7.97;;;2.97;;
38901;SDS011;24661;53.566;9.910;2023-06-22T07:30:21;5.67;;;3.50;;
38901;SDS011;24661;53.566;9.910;2023-06-22T07:32:47;6.83;;;3.40;;
38901;SDS011;24661;53.566;9.910;2023-06-22T07:35:12;3.97;;;3.17;;
38901;SDS011;24661;53.566;9.910;2023-06-22T07:37:38;4.87;;;3.37;;
38901;SDS011;24661;53.566;9.910;2023-06-22T07:40:04;7.73;;;3.40;;
38901;SDS011;24661;53.566;9.910;2023-06-22T07:42:31;5.47;;;3.33;;
38901;SDS011;24661;53.566;9.910;2023-06-22T07:45:00;5.40;;;2.83;;
38901;SDS011;24661;53.566;9.910;2023-06-22T07:47:26;11.43;;;3.40;;
38901;SDS011;24661;53.566;9.910;2023-06-22T07:49:53;6.83;;;3.43;;
38901;SDS011;24661;53.566;9.910;2023-06-22T07:52:20;7.17;;;3.60;;
38901;SDS011;24661;53.566;9.910;2023-06-22T07:54:46;6.20;;;2.97;;
38901;SDS011;24661;53.566;9.910;2023-06-22T07:57:12;3.10;;;2.70;;
38901;SDS011;24661;53.566;9.910;2023-06-22T07:59:37;3.97;;;3.10;;
38901;SDS011;24661;53.566;9.910;2023-06-22T08:02:03;12.30;;;9.43;;
38901;SDS011;24661;53.566;9.910;2023-06-22T08:04:29;10.00;;;4.57;;
38901;SDS011;24661;53.566;9.910;2023-06-22T08:06:56;5.83;;;3.50;;
38901;SDS011;24661;53.566;9.910;2023-06-22T08:09:22;8.93;;;3.53;;
38901;SDS011;24661;53.566;9.910;2023-06-22T08:11:48;3.73;;;2.77;;
38901;SDS011;24661;53.566;9.910;2023-06-22T08:14:14;4.27;;;2.43;;
38901;SDS011;24661;53.566;9.910;2023-06-22T08:16:40;3.77;;;3.13;;
38901;SDS011;24661;53.566;9.910;2023-06-22T08:19:06;4.93;;;3.30;;
38901;SDS011;24661;53.566;9.910;2023-06-22T08:21:32;4.27;;;3.20;;
38901;SDS011;24661;53.566;9.910;2023-06-22T08:23:58;3.43;;;2.87;;
38901;SDS011;24661;53.566;9.910;2023-06-22T08:26:23;7.60;;;3.87;;
38901;SDS011;24661;53.566;9.910;2023-06-22T08:28:49;5.70;;;3.63;;
38901;SDS011;24661;53.566;9.910;2023-06-22T08:31:14;4.03;;;3.30;;
38901;SDS011;24661;53.566;9.910;2023-06-22T08:33:40;6.20;;;3.23;;
38901;SDS011;24661;53.566;9.910;2023-06-22T08:36:08;3.50;;;3.20;;
38901;SDS011;24661;53.566;9.910;2023-06-22T08:38:36;3.77;;;3.00;;
38901;SDS011;24661;53.566;9.910;2023-06-22T08:41:01;3.43;;;2.60;;
38901;SDS011;24661;53.566;9.910;2023-06-22T08:43:27;4.13;;;2.60;;
38901;SDS011;24661;53.566;9.910;2023-06-22T08:45:53;5.07;;;2.50;;
38901;SDS011;24661;53.566;9.910;2023-06-22T08:48:18;7.53;;;3.47;;
38901;SDS011;24661;53.566;9.910;2023-06-22T08:50:44;2.93;;;2.17;;
38901;SDS011;24661;53.566;9.910;2023-06-22T08:53:09;3.13;;;2.30;;
38901;SDS011;24661;53.566;9.910;2023-06-22T08:55:35;4.17;;;2.30;;
38901;SDS011;24661;53.566;9.910;2023-06-22T08:58:01;3.07;;;2.40;;
38901;SDS011;24661;53.566;9.910;2023-06-22T09:00:26;5.20;;;2.90;;
38901;SDS011;24661;53.566;9.910;2023-06-22T09:02:54;3.50;;;2.73;;
38901;SDS011;24661;53.566;9.910;2023-06-22T09:05:23;5.60;;;2.40;;
38901;SDS011;24661;53.566;9.910;2023-06-22T09:07:50;5.60;;;2.63;;
38901;SDS011;24661;53.566;9.910;2023-06-22T09:10:16;3.77;;;2.77;;
38901;SDS011;24661;53.566;9.910;2023-06-22T09:12:42;2.97;;;2.30;;
38901;SDS011;24661;53.566;9.910;2023-06-22T09:15:08;4.17;;;2.53;;
38901;SDS011;24661;53.566;9.910;2023-06-22T09:17:34;4.93;;;2.70;;
38901;SDS011;24661;53.566;9.910;2023-06-22T09:20:00;3.70;;;3.07;;
38901;SDS011;24661;53.566;9.910;2023-06-22T09:22:27;5.27;;;3.10;;
38901;SDS011;24661;53.566;9.910;2023-06-22T09:24:54;3.80;;;3.33;;
38901;SDS011;24661;53.566;9.910;2023-06-22T09:27:21;5.10;;;3.07;;
38901;SDS011;24661;53.566;9.910;2023-06-22T09:29:47;7.17;;;2.70;;
38901;SDS011;24661;53.566;9.910;2023-06-22T09:32:13;3.83;;;2.97;;
38901;SDS011;24661;53.566;9.910;2023-06-22T09:34:38;5.60;;;3.40;;
38901;SDS011;24661;53.566;9.910;2023-06-22T09:37:04;3.17;;;2.77;;
38901;SDS011;24661;53.566;9.910;2023-06-22T09:39:30;3.57;;;2.83;;
38901;SDS011;24661;53.566;9.910;2023-06-22T09:41:57;4.97;;;3.47;;
38901;SDS011;24661;53.566;9.910;2023-06-22T09:44:25;10.40;;;3.47;;
38901;SDS011;24661;53.566;9.910;2023-06-22T09:46:50;4.60;;;3.60;;
38901;SDS011;24661;53.566;9.910;2023-06-22T09:49:16;6.43;;;3.50;;
38901;SDS011;24661;53.566;9.910;2023-06-22T09:51:42;4.90;;;3.50;;
38901;SDS011;24661;53.566;9.910;2023-06-22T09:54:07;6.40;;;3.73;;
38901;SDS011;24661;53.566;9.910;2023-06-22T09:56:33;5.93;;;3.70;;
38901;SDS011;24661;53.566;9.910;2023-06-22T09:58:58;4.30;;;3.03;;
38901;SDS011;24661;53.566;9.910;2023-06-22T10:01:24;7.80;;;3.50;;
38901;SDS011;24661;53.566;9.910;2023-06-22T10:03:51;6.33;;;3.30;;
38901;SDS011;24661;53.566;9.910;2023-06-22T10:06:19;4.17;;;2.93;;
38901;SDS011;24661;53.566;9.910;2023-06-22T10:08:45;5.47;;;3.33;;
38901;SDS011;24661;53.566;9.910;2023-06-22T10:11:11;4.10;;;3.20;;
38901;SDS011;24661;53.566;9.910;2023-06-22T10:13:37;3.63;;;2.90;;
38901;SDS011;24661;53.566;9.910;2023-06-22T10:16:03;4.17;;;2.70;;
38901;SDS011;24661;53.566;9.910;2023-06-22T10:18:28;3.17;;;2.70;;
38901;SDS011;24661;53.566;9.910;2023-06-22T10:20:55;7.77;;;3.17;;
38901;SDS011;24661;53.566;9.910;2023-06-22T10:23:21;5.37;;;3.50;;
38901;SDS011;24661;53.566;9.910;2023-06-22T10:25:47;5.70;;;3.63;;
38901;SDS011;24661;53.566;9.910;2023-06-22T10:28:13;6.43;;;3.20;;
38901;SDS011;24661;53.566;9.910;2023-06-22T10:30:39;4.07;;;2.70;;
38901;SDS011;24661;53.566;9.910;2023-06-22T10:33:08;7.03;;;3.53;;
38901;SDS011;24661;53.566;9.910;2023-06-22T10:35:35;7.00;;;3.00;;
38901;SDS011;24661;53.566;9.910;2023-06-22T10:38:02;6.77;;;3.27;;
38901;SDS011;24661;53.566;9.910;2023-06-22T10:40:28;4.93;;;2.83;;
38901;SDS011;24661;53.566;9.910;2023-06-22T10:42:54;5.40;;;3.00;;
38901;SDS011;24661;53.566;9.910;2023-06-22T10:45:19;5.17;;;3.30;;
38901;SDS011;24661;53.566;9.910;2023-06-22T10:47:45;4.30;;;2.80;;
38901;SDS011;24661;53.566;9.910;2023-06-22T10:50:11;5.13;;;3.70;;
38901;SDS011;24661;53.566;9.910;2023-06-22T10:52:36;5.60;;;3.70;;
38901;SDS011;24661;53.566;9.910;2023-06-22T10:55:02;5.47;;;3.80;;
38901;SDS011;24661;53.566;9.910;2023-06-22T10:57:28;10.37;;;4.83;;
38901;SDS011;24661;53.566;9.910;2023-06-22T10:59:54;4.87;;;4.17;;
38901;SDS011;24661;53.566;9.910;2023-06-22T11:02:19;5.30;;;4.33;;
38901;SDS011;24661;53.566;9.910;2023-06-22T11:04:45;5.70;;;3.83;;
38901;SDS011;24661;53.566;9.910;2023-06-22T11:07:12;5.20;;;3.90;;
38901;SDS011;24661;53.566;9.910;2023-06-22T11:09:38;7.37;;;3.83;;
38901;SDS011;24661;53.566;9.910;2023-06-22T11:12:04;4.43;;;3.97;;
38901;SDS011;24661;53.566;9.910;2023-06-22T11:14:31;4.27;;;3.77;;
38901;SDS011;24661;53.566;9.910;2023-06-22T11:16:58;6.40;;;4.10;;
38901;SDS011;24661;53.566;9.910;2023-06-22T11:19:24;6.43;;;3.73;;
38901;SDS011;24661;53.566;9.910;2023-06-22T11:21:50;5.77;;;4.50;;
38901;SDS011;24661;53.566;9.910;2023-06-22T11:24:16;4.67;;;4.17;;
38901;SDS011;24661;53.566;9.910;2023-06-22T11:26:41;4.63;;;4.13;;
38901;SDS011;24661;53.566;9.910;2023-06-22T11:29:07;5.30;;;3.70;;
38901;SDS011;24661;53.566;9.910;2023-06-22T11:31:33;4.40;;;3.63;;
38901;SDS011;24661;53.566;9.910;2023-06-22T11:34:00;4.43;;;3.93;;
38901;SDS011;24661;53.566;9.910;2023-06-22T11:36:26;5.43;;;4.23;;
38901;SDS011;24661;53.566;9.910;2023-06-22T11:38:52;6.43;;;4.50;;
38901;SDS011;24661;53.566;9.910;2023-06-22T11:41:17;6.30;;;4.40;;
38901;SDS011;24661;53.566;9.910;2023-06-22T11:43:44;4.77;;;3.80;;
38901;SDS011;24661;53.566;9.910;2023-06-22T11:46:09;5.60;;;4.10;;
38901;SDS011;24661;53.566;9.910;2023-06-22T11:48:35;4.73;;;4.17;;
38901;SDS011;24661;53.566;9.910;2023-06-22T11:51:01;4.60;;;4.20;;
38901;SDS011;24661;53.566;9.910;2023-06-22T11:53:27;4.93;;;3.80;;
38901;SDS011;24661;53.566;9.910;2023-06-22T11:55:53;8.70;;;4.43;;
38901;SDS011;24661;53.566;9.910;2023-06-22T11:58:20;7.77;;;4.63;;
38901;SDS011;24661;53.566;9.910;2023-06-22T12:00:46;5.33;;;4.20;;
38901;SDS011;24661;53.566;9.910;2023-06-22T12:03:11;4.87;;;4.33;;
38901;SDS011;24661;53.566;9.910;2023-06-22T12:05:38;4.63;;;4.13;;
38901;SDS011;24661;53.566;9.910;2023-06-22T12:08:03;6.50;;;4.20;;
38901;SDS011;24661;53.566;9.910;2023-06-22T12:10:29;4.20;;;3.80;;
38901;SDS011;24661;53.566;9.910;2023-06-22T12:12:55;6.13;;;4.27;;
38901;SDS011;24661;53.566;9.910;2023-06-22T12:15:22;5.57;;;5.03;;
38901;SDS011;24661;53.566;9.910;2023-06-22T12:17:48;6.90;;;4.83;;
38901;SDS011;24661;53.566;9.910;2023-06-22T12:20:14;5.37;;;4.57;;
38901;SDS011;24661;53.566;9.910;2023-06-22T12:22:40;5.00;;;4.20;;
38901;SDS011;24661;53.566;9.910;2023-06-22T12:25:06;6.70;;;4.30;;
38901;SDS011;24661;53.566;9.910;2023-06-22T12:27:35;6.53;;;4.00;;
38901;SDS011;24661;53.566;9.910;2023-06-22T12:30:01;6.53;;;3.83;;
38901;SDS011;24661;53.566;9.910;2023-06-22T12:32:27;6.63;;;3.90;;
38901;SDS011;24661;53.566;9.910;2023-06-22T12:34:53;4.57;;;3.83;;
38901;SDS011;24661;53.566;9.910;2023-06-22T12:37:20;5.57;;;3.90;;
38901;SDS011;24661;53.566;9.910;2023-06-22T12:39:46;5.07;;;4.50;;
38901;SDS011;24661;53.566;9.910;2023-06-22T12:42:11;4.60;;;4.20;;
38901;SDS011;24661;53.566;9.910;2023-06-22T12:44:37;4.33;;;3.90;;
38901;SDS011;24661;53.566;9.910;2023-06-22T12:47:04;6.43;;;3.93;;
38901;SDS011;24661;53.566;9.910;2023-06-22T12:49:30;5.73;;;5.23;;
38901;SDS011;24661;53.566;9.910;2023-06-22T12:51:56;6.10;;;5.33;;
38901;SDS011;24661;53.566;9.910;2023-06-22T12:54:22;5.50;;;5.00;;
38901;SDS011;24661;53.566;9.910;2023-06-22T12:56:47;4.73;;;4.20;;
38901;SDS011;24661;53.566;9.910;2023-06-22T12:59:15;8.27;;;5.03;;
38901;SDS011;24661;53.566;9.910;2023-06-22T13:01:42;7.37;;;5.53;;
38901;SDS011;24661;53.566;9.910;2023-06-22T13:04:09;6.33;;;5.33;;
38901;SDS011;24661;53.566;9.910;2023-06-22T13:06:36;6.67;;;5.10;;
38901;SDS011;24661;53.566;9.910;2023-06-22T13:09:02;7.30;;;4.67;;
38901;SDS011;24661;53.566;9.910;2023-06-22T13:11:30;5.40;;;4.83;;
38901;SDS011;24661;53.566;9.910;2023-06-22T13:13:55;9.33;;;5.60;;
38901;SDS011;24661;53.566;9.910;2023-06-22T13:16:21;5.57;;;4.93;;
38901;SDS011;24661;53.566;9.910;2023-06-22T13:18:46;8.13;;;5.00;;
38901;SDS011;24661;53.566;9.910;2023-06-22T13:21:12;5.90;;;5.30;;
38901;SDS011;24661;53.566;9.910;2023-06-22T13:23:39;7.30;;;6.60;;
38901;SDS011;24661;53.566;9.910;2023-06-22T13:26:04;9.57;;;8.67;;
38901;SDS011;24661;53.566;9.910;2023-06-22T13:28:30;6.13;;;5.47;;
38901;SDS011;24661;53.566;9.910;2023-06-22T13:30:55;8.80;;;5.50;;
38901;SDS011;24661;53.566;9.910;2023-06-22T13:33:21;6.40;;;5.43;;
38901;SDS011;24661;53.566;9.910;2023-06-22T13:35:47;5.13;;;4.70;;
38901;SDS011;24661;53.566;9.910;2023-06-22T13:38:12;5.57;;;5.07;;
38901;SDS011;24661;53.566;9.910;2023-06-22T13:40:38;7.57;;;6.77;;
38901;SDS011;24661;53.566;9.910;2023-06-22T13:43:04;5.97;;;5.23;;
38901;SDS011;24661;53.566;9.910;2023-06-22T13:45:30;6.20;;;5.33;;
38901;SDS011;24661;53.566;9.910;2023-06-22T13:47:56;6.87;;;5.80;;
38901;SDS011;24661;53.566;9.910;2023-06-22T13:50:21;6.90;;;5.30;;
38901;SDS011;24661;53.566;9.910;2023-06-22T13:52:47;6.03;;;4.50;;
38901;SDS011;24661;53.566;9.910;2023-06-22T13:55:13;9.17;;;5.27;;
38901;SDS011;24661;53.566;9.910;2023-06-22T13:57:39;5.30;;;4.70;;
38901;SDS011;24661;53.566;9.910;2023-06-22T14:00:05;7.87;;;5.27;;
38901;SDS011;24661;53.566;9.910;2023-06-22T14:02:33;5.20;;;4.60;;
38901;SDS011;24661;53.566;9.910;2023-06-22T14:04:58;6.03;;;4.60;;
38901;SDS011;24661;53.566;9.910;2023-06-22T14:07:24;5.97;;;4.93;;
38901;SDS011;24661;53.566;9.910;2023-06-22T14:09:50;6.57;;;5.87;;
38901;SDS011;24661;53.566;9.910;2023-06-22T14:12:16;6.23;;;4.20;;
38901;SDS011;24661;53.566;9.910;2023-06-22T14:14:43;5.27;;;4.53;;
38901;SDS011;24661;53.566;9.910;2023-06-22T14:17:08;6.97;;;5.40;;
38901;SDS011;24661;53.566;9.910;2023-06-22T14:19:36;5.53;;;5.00;;
38901;SDS011;24661;53.566;9.910;2023-06-22T14:22:02;7.53;;;5.00;;
38901;SDS011;24661;53.566;9.910;2023-06-22T14:24:27;5.10;;;4.63;;
38901;SDS011;24661;53.566;9.910;2023-06-22T14:26:56;4.40;;;4.00;;
38901;SDS011;24661;53.566;9.910;2023-06-22T14:29:22;6.97;;;4.60;;
38901;SDS011;24661;53.566;9.910;2023-06-22T14:31:48;7.77;;;4.50;;
38901;SDS011;24661;53.566;9.910;2023-06-22T14:34:14;10.30;;;6.67;;
38901;SDS011;24661;53.566;9.910;2023-06-22T14:36:41;6.77;;;5.73;;
38901;SDS011;24661;53.566;9.910;2023-06-22T14:39:07;6.70;;;5.60;;
38901;SDS011;24661;53.566;9.910;2023-06-22T14:41:33;6.27;;;5.67;;
38901;SDS011;24661;53.566;9.910;2023-06-22T14:43:58;5.10;;;4.37;;
38901;SDS011;24661;53.566;9.910;2023-06-22T14:46:24;7.03;;;4.60;;
38901;SDS011;24661;53.566;9.910;2023-06-22T14:48:49;7.13;;;5.30;;
38901;SDS011;24661;53.566;9.910;2023-06-22T14:51:15;4.77;;;4.20;;